Time;durP1;ratioP1;P1;durP2;ratioP2;P2;SDS_P1;SDS_P2;PMS_P1;PMS_P2;Temp;Humidity;BMP_temperature;BMP_pressure;BME280_temperature;BME280_humidity;BME280_pressure;Samples;Min_cycle;Max_cycle;Signal;HPM_P1;HPM_P2
2021/12/14 00:00:43;;;;;;;2.92;2.72;;;;;;;11.12;82.07;101340.88;4955156;29;20347;-75
2021/12/14 00:03:09;;;;;;;2.80;2.60;;;;;;;11.12;82.32;101338.13;4938015;29;20025;-75
2021/12/14 00:05:44;;;;;;;27.25;3.00;;;;;;;11.11;81.47;101333.75;4954209;29;20687;-76
2021/12/14 00:08:13;;;;;;;2.95;2.30;;;;;;;11.12;81.73;101331.84;4935485;29;20027;-74
2021/12/14 00:13:52;;;;;;;;;;;;;;;11.13;81.92;101334.34;4953177;29;20039;-76
2021/12/14 00:16:15;;;;;;;9.93;3.17;;;;;;;11.02;81.91;101323.47;4951034;29;19937;-73
2021/12/14 00:18:41;;;;;;;2.78;2.47;;;;;;;11.03;81.61;101331.44;4939186;29;20042;-75
2021/12/14 00:21:21;;;;;;;2.58;2.40;;;;;;;11.07;81.50;101334.47;4931665;29;20051;-74
2021/12/14 00:24:09;;;;;;;2.45;2.25;;;;;;;11.05;81.76;101325.69;4928522;29;20032;-76
2021/12/14 00:26:45;;;;;;;11.65;3.20;;;;;;;11.11;82.02;101327.44;4947907;29;20107;-76
2021/12/14 00:29:37;;;;;;;5.47;2.60;;;;;;;11.15;81.49;101320.41;4935943;29;20035;-75
2021/12/14 00:32:16;;;;;;;8.63;2.58;;;;;;;11.11;81.87;101311.00;4910490;29;20031;-77
2021/12/14 00:34:45;;;;;;;10.85;2.45;;;;;;;10.99;81.76;101295.53;4947977;29;20020;-77
2021/12/14 00:37:21;;;;;;;2.83;2.58;;;;;;;10.91;81.40;101293.19;4947507;29;20027;-77
2021/12/14 00:39:52;;;;;;;3.80;2.92;;;;;;;11.02;81.66;101312.50;4964515;29;20496;-77
2021/12/14 00:42:21;;;;;;;9.10;3.08;;;;;;;11.03;82.11;101308.72;4952859;29;20031;-77
2021/12/14 00:45:01;;;;;;;;;;;;;;;;;;;;;
2021/12/14 00:47:41;;;;;;;5.45;3.00;;;;;;;10.90;81.65;101294.25;4937758;29;20110;-75
2021/12/14 00:50:09;;;;;;;5.90;3.60;;;;;;;11.03;81.74;101315.00;4952455;28;20023;-77
2021/12/14 00:52:45;;;;;;;;;;;;;;;;;;;;;
2021/12/14 00:55:18;;;;;;;6.85;4.10;;;;;;;10.83;82.42;101282.63;4950226;29;20015;-73
2021/12/14 00:57:46;;;;;;;13.23;3.97;;;;;;;10.88;82.25;101284.63;4930608;29;20040;-73
2021/12/14 01:00:16;;;;;;;4.55;3.25;;;;;;;10.95;82.36;101307.19;4930725;29;20415;-75
2021/12/14 01:02:45;;;;;;;7.70;3.35;;;;;;;10.90;82.45;101296.97;4935062;29;20027;-75
2021/12/14 01:05:17;;;;;;;4.35;2.90;;;;;;;10.88;82.98;101293.69;4950323;29;20030;-75
2021/12/14 01:07:46;;;;;;;5.53;3.42;;;;;;;10.85;82.69;101296.91;4950652;29;20027;-75
2021/12/14 01:10:24;;;;;;;3.72;3.42;;;;;;;10.86;82.57;101298.53;4933388;29;20779;-75
2021/12/14 01:12:54;;;;;;;7.65;3.08;;;;;;;10.83;82.72;101294.41;4956091;29;20035;-76
2021/12/14 01:15:31;;;;;;;2.67;2.53;;;;;;;11.03;82.76;101314.19;4950623;29;20027;-76
2021/12/14 01:21:01;;;;;;;6.28;3.40;;;;;;;11.09;82.42;101324.13;4956975;29;20042;-75
2021/12/14 01:23:32;;;;;;;3.13;2.72;;;;;;;11.14;82.78;101325.06;4953752;29;20449;-77
2021/12/14 01:26:05;;;;;;;3.28;3.05;;;;;;;11.10;82.43;101320.34;4958431;29;20051;-76
2021/12/14 01:28:32;;;;;;;2.78;2.58;;;;;;;11.15;82.63;101317.66;4944190;29;20047;-73
2021/12/14 01:34:16;;;;;;;3.22;2.92;;;;;;;11.24;82.76;101332.59;4882307;29;20129;-75
2021/12/14 01:36:47;;;;;;;6.90;2.97;;;;;;;11.27;82.92;101325.78;4956341;29;20024;-76
2021/12/14 01:42:04;;;;;;;4.78;2.65;;;;;;;11.30;82.44;101331.63;4951453;29;20015;-75
2021/12/14 01:44:41;;;;;;;2.38;2.25;;;;;;;11.29;81.93;101324.47;4935612;29;20059;-76
2021/12/14 01:47:36;;;;;;;4.18;2.35;;;;;;;11.40;81.89;101336.41;4959295;29;20046;-75
2021/12/14 01:50:17;;;;;;;1.80;1.70;;;;;;;11.46;82.38;101332.69;4938968;29;20398;-75
2021/12/14 01:53:20;;;;;;;2.75;1.98;;;;;;;11.38;82.02;101316.66;4958958;29;20086;-75
2021/12/14 01:55:52;;;;;;;;;;;;;;;;;;;;;
2021/12/14 01:58:23;;;;;;;5.05;2.45;;;;;;;11.46;82.35;101345.53;4954643;29;20095;-75
2021/12/14 02:00:57;;;;;;;7.05;3.55;;;;;;;11.33;81.87;101343.97;4933868;29;20476;-75
2021/12/14 02:04:14;;;;;;;;;;;;;;;;;;;;;
2021/12/14 02:06:44;;;;;;;5.40;3.15;;;;;;;11.18;82.56;101334.44;4952766;29;20079;-74
2021/12/14 02:09:17;;;;;;;8.25;3.60;;;;;;;11.15;82.07;101336.81;4958204;29;20027;-74
2021/12/14 02:11:50;;;;;;;7.53;3.13;;;;;;;11.18;82.18;101345.38;4955701;29;20034;-76
2021/12/14 02:14:17;;;;;;;12.63;4.13;;;;;;;11.19;82.85;101343.47;4950589;29;20047;-76
2021/12/14 02:16:43;;;;;;;14.23;4.75;;;;;;;11.06;82.62;101330.94;4914581;29;20102;-76
2021/12/14 02:19:14;;;;;;;7.38;3.15;;;;;;;11.16;82.16;101346.69;4949817;29;20338;-74
2021/12/14 02:21:43;;;;;;;7.32;3.05;;;;;;;11.18;82.33;101355.50;4936235;29;20119;-72
2021/12/14 02:24:10;;;;;;;10.18;3.63;;;;;;;11.17;82.16;101342.91;4946693;29;20045;-78
2021/12/14 02:26:42;;;;;;;9.85;3.08;;;;;;;11.22;82.12;101350.38;4930935;29;20032;-76
2021/12/14 02:29:21;;;;;;;10.55;3.22;;;;;;;11.15;82.36;101355.97;4957378;29;20035;-80
2021/12/14 02:31:47;;;;;;;8.82;3.30;;;;;;;11.17;83.08;101359.31;4947121;29;20027;-80
2021/12/14 02:34:20;;;;;;;7.85;3.15;;;;;;;11.15;82.50;101366.94;4962286;29;20055;-81
2021/12/14 02:39:48;;;;;;;9.40;3.75;;;;;;;10.94;83.01;101344.69;4956528;29;20039;-78
2021/12/14 02:42:32;;;;;;;4.10;2.72;;;;;;;10.91;83.24;101350.66;4951174;29;20027;-77
2021/12/14 02:45:02;;;;;;;9.80;3.60;;;;;;;10.84;82.54;101344.50;4945461;29;20500;-78
2021/12/14 02:47:40;;;;;;;;;;;;;;;;;;;;;
2021/12/14 02:50:08;;;;;;;10.75;3.78;;;;;;;10.72;83.14;101347.28;4955883;28;20099;-79
2021/12/14 02:52:35;;;;;;;3.88;3.55;;;;;;;10.71;83.37;101367.50;4954487;29;20043;-78
2021/12/14 02:55:15;;;;;;;14.25;3.75;;;;;;;10.70;83.62;101359.53;4939012;29;20027;-76
2021/12/14 02:57:51;;;;;;;9.27;3.75;;;;;;;10.57;83.82;101347.81;4933157;29;20040;-78
2021/12/14 03:00:30;;;;;;;11.40;4.40;;;;;;;10.48;83.76;101341.06;4934216;29;20028;-79
2021/12/14 03:02:57;;;;;;;12.02;4.15;;;;;;;10.48;84.18;101352.00;4940861;29;20040;-80
2021/12/14 03:06:18;;;;;;;8.13;3.20;;;;;;;10.54;84.49;101356.53;4934310;29;20031;-79
2021/12/14 03:08:56;;;;;;;9.57;3.50;;;;;;;10.31;84.28;101319.94;4935331;29;20068;-75
2021/12/14 03:11:32;;;;;;;;;;;;;;;;;;;;;
2021/12/14 03:14:01;;;;;;;13.10;4.45;;;;;;;10.40;84.41;101349.66;4935749;29;20103;-78
2021/12/14 03:16:36;;;;;;;9.70;4.80;;;;;;;10.40;84.79;101355.13;4945095;29;20024;-76
2021/12/14 03:19:07;;;;;;;21.20;7.65;;;;;;;10.33;84.44;101348.94;4936540;29;20024;-77
2021/12/14 03:22:00;;;;;;;21.33;6.85;;;;;;;10.26;85.14;101341.69;4947305;29;20038;-76
2021/12/14 03:24:36;;;;;;;16.08;8.48;;;;;;;10.31;84.71;101355.47;4941149;29;20040;-74
2021/12/14 03:27:49;;;;;;;23.90;14.07;;;;;;;10.25;84.88;101348.25;4938953;29;20019;-74
2021/12/14 03:30:39;;;;;;;;;;;;;;;;;;;;;
2021/12/14 03:33:34;;;;;;;11.57;5.95;;;;;;;10.09;85.11;101340.75;4939342;29;20107;-76
2021/12/14 03:36:27;;;;;;;;;;;;;;;;;;;;;
2021/12/14 03:39:03;;;;;;;14.00;4.85;;;;;;;9.95;85.51;101338.28;4942702;29;20123;-73
2021/12/14 03:41:32;;;;;;;;;;;;;;;10.00;85.31;101340.31;4941646;29;20034;-74
2021/12/14 03:44:08;;;;;;;8.38;3.72;;;;;;;9.95;85.74;101338.28;4939302;29;20356;-71
2021/12/14 03:46:47;;;;;;;5.97;4.15;;;;;;;9.98;85.31;101334.25;4937788;29;20035;-72
2021/12/14 03:49:20;;;;;;;6.40;3.97;;;;;;;9.95;85.60;101332.84;4937165;29;20059;-73
2021/12/14 03:51:51;;;;;;;9.38;3.80;;;;;;;9.95;85.42;101338.28;4940750;29;20034;-74
2021/12/14 03:54:18;;;;;;;8.90;3.80;;;;;;;9.93;85.87;101348.66;4935900;29;20110;-72
2021/12/14 03:56:44;;;;;;;12.05;4.30;;;;;;;9.98;85.21;101358.03;4939639;29;20569;-73
2021/12/14 03:59:09;;;;;;;12.45;3.75;;;;;;;9.94;85.28;101358.50;4957492;28;20062;-73
2021/12/14 04:01:39;;;;;;;11.43;4.35;;;;;;;9.89;85.44;101352.91;4937049;29;20119;-73
2021/12/14 04:04:16;;;;;;;8.13;3.83;;;;;;;9.95;85.47;101353.88;4956015;28;20019;-74
2021/12/14 04:06:44;;;;;;;8.85;4.10;;;;;;;9.90;85.73;101359.19;4956571;28;20028;-73
2021/12/14 04:09:13;;;;;;;9.27;4.30;;;;;;;9.87;86.29;101351.50;4955752;28;20052;-72
2021/12/14 04:11:42;;;;;;;11.63;4.55;;;;;;;9.91;86.22;101355.41;4939031;29;20042;-74
2021/12/14 04:14:11;;;;;;;12.75;4.10;;;;;;;9.88;86.45;101356.72;4942495;29;20028;-72
2021/12/14 04:16:40;;;;;;;14.23;4.78;;;;;;;9.86;86.45;101339.75;4940171;29;20067;-75
2021/12/14 04:22:33;;;;;;;7.13;4.45;;;;;;;9.93;86.97;101340.44;4959576;29;20437;-72
2021/12/14 04:25:10;;;;;;;14.48;5.07;;;;;;;9.97;87.14;101343.53;4959106;28;20102;-73
2021/12/14 04:27:38;;;;;;;10.77;4.72;;;;;;;9.97;87.19;101335.31;4956974;29;20027;-74
2021/12/14 04:30:30;;;;;;;12.55;4.72;;;;;;;9.89;86.94;101316.59;4957192;29;20027;-75
2021/12/14 04:33:00;;;;;;;10.15;4.40;;;;;;;10.00;86.84;101344.94;4959259;29;20043;-74
2021/12/14 04:35:40;;;;;;;15.55;4.72;;;;;;;10.09;86.94;101360.75;4933016;29;20036;-76
2021/12/14 04:38:16;;;;;;;18.40;5.28;;;;;;;10.06;87.11;101365.84;4954785;29;20046;-75
2021/12/14 04:54:44;;;;;;;8.55;4.03;;;;;;;10.01;87.11;101365.75;4956586;29;20106;-74
2021/12/14 04:57:33;;;;;;;12.73;4.55;;;;;;;10.11;87.11;101380.47;4946334;29;20047;-75
2021/12/14 05:00:16;;;;;;;4.45;4.05;;;;;;;10.10;87.03;101372.50;4955928;29;20058;-78
2021/12/14 05:02:48;;;;;;;16.65;4.68;;;;;;;10.13;86.84;101378.34;4941603;29;20031;-77
2021/12/14 05:05:24;;;;;;;6.75;3.92;;;;;;;10.09;86.58;101371.69;4915065;29;20023;-80
2021/12/14 05:11:10;;;;;;;6.97;5.15;;;;;;;9.99;86.73;101354.22;4954477;29;20033;-78
2021/12/14 05:14:23;;;;;;;17.27;5.00;;;;;;;10.10;86.80;101373.34;4943448;29;20019;-78
2021/12/14 05:17:07;;;;;;;;;;;;;;;;;;;;;
2021/12/14 05:19:56;;;;;;;9.05;3.90;;;;;;;9.93;86.79;101354.09;4956681;29;20104;-78
2021/12/14 05:22:45;;;;;;;8.32;3.83;;;;;;;10.01;85.84;101363.00;4961803;29;20031;-78
2021/12/14 05:25:26;;;;;;;;;;;;;;;;;;;;;
2021/12/14 05:28:01;;;;;;;14.35;3.72;;;;;;;9.76;86.17;101358.63;4957386;29;20082;-76
2021/12/14 05:30:37;;;;;;;8.37;4.77;;;;;;;9.80;86.27;101365.28;4940650;29;20034;-77
2021/12/14 05:33:08;;;;;;;7.88;3.63;;;;;;;9.81;86.01;101377.84;4941033;29;20277;-77
2021/12/14 05:35:37;;;;;;;12.10;3.63;;;;;;;9.79;86.08;101374.53;4943193;29;20027;-78
2021/12/14 05:38:12;;;;;;;4.10;2.78;;;;;;;9.89;86.04;101388.44;4956436;29;20045;-77
2021/12/14 05:56:41;;;;;;;;;;;;;;;;;;;;;
2021/12/14 05:59:10;;;;;;;8.57;3.47;;;;;;;10.27;86.06;101392.56;4910276;29;20104;-84
2021/12/14 06:01:35;;;;;;;4.28;2.38;;;;;;;10.30;86.10;101389.34;4894855;29;20103;-84
2021/12/14 06:04:32;;;;;;;7.15;2.72;;;;;;;10.57;85.85;101416.19;4896509;29;20071;-84
2021/12/14 06:06:58;;;;;;;6.45;4.10;;;;;;;10.62;85.89;101418.22;4900733;29;20025;-83
2021/12/14 06:09:29;;;;;;;2.78;2.53;;;;;;;10.55;85.77;101396.44;4906949;29;20495;-77
2021/12/14 06:12:14;;;;;;;3.25;2.63;;;;;;;10.71;85.93;101410.44;4888239;29;20041;-78
2021/12/14 06:14:58;;;;;;;13.45;3.40;;;;;;;10.75;85.54;101422.56;4889400;29;20036;-78
2021/12/14 06:17:39;;;;;;;;;;;;;;;;;;;;;
2021/12/14 06:20:18;;;;;;;6.63;2.85;;;;;;;10.86;85.84;101432.63;4908617;29;20112;-77
2021/12/14 06:22:55;;;;;;;3.55;3.22;;;;;;;10.86;85.34;101426.34;4907142;29;20060;-77
2021/12/14 06:25:29;;;;;;;4.07;2.95;;;;;;;10.83;85.47;101419.44;4902183;29;20056;-78
2021/12/14 06:28:27;;;;;;;;;;;;;;;;;;;;;
2021/12/14 06:30:43;;;;;;;3.33;2.13;;;;;;;10.80;85.28;101406.25;4905588;29;20489;-78
2021/12/14 06:33:25;;;;;;;;;;;;;;;;;;;;;
2021/12/14 06:36:01;;;;;;;;;;;;;;;;;;;;;
2021/12/14 06:38:35;;;;;;;5.38;2.63;;;;;;;10.96;85.11;101424.63;4914576;29;20123;-76
2021/12/14 06:41:09;;;;;;;7.00;2.90;;;;;;;11.04;84.91;101431.63;4904972;29;20618;-75
2021/12/14 06:43:49;;;;;;;12.05;4.10;;;;;;;11.05;85.59;101437.91;4889624;29;21957;-76
2021/12/14 06:46:23;;;;;;;8.00;3.92;;;;;;;10.98;84.71;101430.69;4902812;29;20036;-75
2021/12/14 06:48:53;;;;;;;5.45;2.72;;;;;;;11.08;84.91;101441.00;4900274;29;20021;-76
2021/12/14 06:51:31;;;;;;;2.17;2.08;;;;;;;11.05;85.02;101432.44;4905709;29;20059;-74
2021/12/14 06:54:00;;;;;;;3.40;2.83;;;;;;;11.16;84.87;101450.72;4905394;29;20020;-74
2021/12/14 06:56:34;;;;;;;2.95;2.63;;;;;;;11.16;85.38;101457.03;4904445;29;20059;-74
2021/12/14 06:59:14;;;;;;;4.90;3.25;;;;;;;11.17;84.62;101452.41;4906059;29;20107;-75
2021/12/14 07:02:02;;;;;;;2.50;2.30;;;;;;;11.16;84.69;101450.72;4908804;29;20028;-74
2021/12/14 07:04:30;;;;;;;3.55;2.85;;;;;;;11.17;85.19;101452.41;4903457;29;20024;-74
2021/12/14 07:07:04;;;;;;;2.97;2.55;;;;;;;11.16;84.84;101446.06;4907013;29;20020;-74
2021/12/14 07:09:39;;;;;;;2.40;1.80;;;;;;;11.29;84.98;101466.84;4885708;29;20033;-77
2021/12/14 07:12:17;;;;;;;7.60;2.55;;;;;;;11.32;84.54;101471.84;4904187;29;20037;-77
2021/12/14 07:15:02;;;;;;;4.30;2.35;;;;;;;11.35;84.89;101468.59;4897746;29;20111;-77
2021/12/14 07:17:42;;;;;;;3.33;2.27;;;;;;;11.33;84.58;101462.56;4885028;29;20036;-76
2021/12/14 07:20:14;;;;;;;9.80;3.35;;;;;;;11.33;84.72;101468.03;4906737;29;20032;-76
2021/12/14 07:23:00;;;;;;;7.43;3.30;;;;;;;11.25;84.67;101460.19;4900593;29;20417;-77
2021/12/14 07:25:30;;;;;;;4.40;3.00;;;;;;;11.25;84.52;101454.72;4892354;29;20036;-77
2021/12/14 07:28:08;;;;;;;8.65;3.20;;;;;;;11.30;84.78;101457.56;4904649;29;20029;-77
2021/12/14 07:30:45;;;;;;;5.50;2.42;;;;;;;11.33;84.84;101462.56;4901575;29;20032;-77
2021/12/14 07:33:28;;;;;;;6.80;3.25;;;;;;;11.36;84.53;101463.97;4883124;29;20024;-76
2021/12/14 07:36:04;;;;;;;11.35;3.33;;;;;;;11.36;84.21;101461.25;4901235;29;20024;-77
2021/12/14 07:38:49;;;;;;;4.25;3.30;;;;;;;11.35;84.26;101454.91;4900410;29;20032;-76
2021/12/14 07:41:28;;;;;;;6.88;2.70;;;;;;;11.33;84.42;101454.34;4883434;29;20039;-77
2021/12/14 07:44:03;;;;;;;7.70;2.38;;;;;;;11.32;84.30;101443.63;4883223;29;20043;-75
2021/12/14 07:46:39;;;;;;;7.88;3.20;;;;;;;11.34;83.51;101453.25;4886059;29;20032;-78
2021/12/14 07:49:16;;;;;;;2.28;2.05;;;;;;;11.21;83.90;101455.47;4892251;29;20053;-79
2021/12/14 07:51:42;;;;;;;3.95;2.40;;;;;;;10.99;83.87;101443.31;4900816;29;20049;-79
2021/12/14 07:54:23;;;;;;;4.30;2.70;;;;;;;11.02;83.47;101469.34;4905554;29;20051;-76
2021/12/14 07:56:57;;;;;;;3.33;2.92;;;;;;;10.93;83.33;101474.38;4900533;29;20051;-78
2021/12/14 07:59:30;;;;;;;5.40;2.70;;;;;;;10.81;83.47;101470.84;4899486;29;20055;-84
2021/12/14 08:02:46;;;;;;;9.32;3.10;;;;;;;10.74;84.01;101476.44;4909732;29;20024;-80
2021/12/14 08:05:18;;;;;;;13.23;3.40;;;;;;;10.45;83.82;101440.84;4864092;29;20039;-83
2021/12/14 08:08:17;;;;;;;;;;;;;;;;;;;;;
2021/12/14 08:10:58;;;;;;;3.13;2.63;;;;;;;10.55;83.87;101483.97;4908092;29;20078;-81
2021/12/14 08:13:38;;;;;;;3.35;2.65;;;;;;;10.53;83.68;101486.13;4902566;29;20029;-81
2021/12/14 08:16:04;;;;;;;3.13;2.58;;;;;;;10.33;83.92;101466.50;4903901;29;20028;-81
2021/12/14 08:18:37;;;;;;;3.03;2.33;;;;;;;10.41;83.85;101477.09;4893314;29;20033;-82
2021/12/14 08:21:15;;;;;;;1.70;1.50;;;;;;;10.34;84.06;101470.91;4892756;29;20043;-80
2021/12/14 08:23:49;;;;;;;2.63;2.42;;;;;;;10.43;84.17;101497.66;4883169;29;20052;-81
2021/12/14 08:26:40;;;;;;;2.28;2.15;;;;;;;10.46;84.58;101496.34;4912326;29;20033;-81
2021/12/14 08:29:38;;;;;;;5.45;3.53;;;;;;;10.34;84.05;101466.28;4910062;29;20029;-79
2021/12/14 08:32:24;;;;;;;7.00;2.13;;;;;;;10.33;83.76;101469.22;4900997;29;20093;-81
2021/12/14 08:37:56;;;;;;;;;;;;;;;;;;;;;
2021/12/14 08:43:27;;;;;;;3.17;2.63;;;;;;;10.48;83.46;101484.13;4904525;29;20048;-81
2021/12/14 08:46:12;;;;;;;3.35;2.60;;;;;;;10.52;83.78;101484.44;4909964;29;20047;-81
2021/12/14 08:49:15;;;;;;;2.20;2.10;;;;;;;10.54;83.78;101482.31;4893013;29;20039;-83
2021/12/14 08:51:50;;;;;;;3.05;2.40;;;;;;;10.57;83.84;101494.66;4878375;29;20041;-79
2021/12/14 08:54:31;;;;;;;9.63;3.08;;;;;;;10.67;83.57;101502.28;4902014;29;20024;-80
2021/12/14 08:57:30;;;;;;;;;;;;;;;;;;;;;
2021/12/14 09:00:10;;;;;;;4.38;2.78;;;;;;;10.69;83.55;101494.66;4909893;29;20111;-81
2021/12/14 09:02:45;;;;;;;6.15;3.45;;;;;;;10.77;83.99;101492.38;4904365;29;20024;-81
2021/12/14 09:05:30;;;;;;;6.78;2.78;;;;;;;10.89;83.94;101484.13;4898899;29;20038;-81
2021/12/14 09:08:20;;;;;;;;;;;;;;;;;;;;;
2021/12/14 09:14:02;;;;;;;8.55;3.20;;;;;;;11.31;82.57;101491.25;4897201;29;20045;-80
2021/12/14 09:16:49;;;;;;;6.75;2.03;;;;;;;11.42;82.52;101508.69;4884677;29;20052;-82
2021/12/14 09:20:18;;;;;;;;;;;;;;;;;;;;;
2021/12/14 09:22:51;;;;;;;7.93;4.68;;;;;;;11.68;81.81;101504.50;4890621;29;20068;-80
2021/12/14 09:25:23;;;;;;;4.80;2.83;;;;;;;11.78;81.93;101496.47;4919771;29;20040;-79
2021/12/14 09:27:54;;;;;;;7.40;2.58;;;;;;;11.88;81.57;101507.63;4895894;29;20040;-80
2021/12/14 09:30:34;;;;;;;8.60;2.30;;;;;;;12.05;81.12;101524.09;4903405;29;20052;-80
2021/12/14 09:33:29;;;;;;;1.90;1.80;;;;;;;12.23;81.00;101536.72;4914109;29;20048;-80
2021/12/14 09:36:12;;;;;;;3.08;2.72;;;;;;;12.29;80.09;101529.41;4907867;29;20035;-80
2021/12/14 09:39:08;;;;;;;3.88;2.45;;;;;;;12.47;79.76;101530.22;4902624;29;20088;-81
2021/12/14 09:42:04;;;;;;;;;;;;;;;;;;;;;
2021/12/14 09:44:52;;;;;;;2.78;1.67;;;;;;;12.57;79.30;101519.38;4913282;29;20052;-79
2021/12/14 09:47:42;;;;;;;3.58;1.88;;;;;;;12.72;78.91;101535.25;4887539;29;20032;-78
2021/12/14 09:50:47;;;;;;;1.90;1.80;;;;;;;12.83;78.40;101544.44;4914338;29;20096;-80
2021/12/14 09:53:21;;;;;;;3.88;2.15;;;;;;;12.82;77.85;101526.31;4895956;29;20063;-80
2021/12/14 09:55:53;;;;;;;1.70;1.60;;;;;;;12.96;78.05;101540.50;4894183;29;20145;-79
2021/12/14 09:58:48;;;;;;;;;;;;;;;;;;;;;
2021/12/14 10:01:45;;;;;;;4.47;1.57;;;;;;;13.22;77.86;101542.47;4889231;29;20112;-79
2021/12/14 10:04:24;;;;;;;2.13;1.40;;;;;;;13.30;77.53;101535.69;4885742;29;20025;-77
2021/12/14 10:06:51;;;;;;;1.08;0.98;;;;;;;13.52;77.65;101559.59;4897664;29;20021;-78
2021/12/14 10:09:41;;;;;;;;;;;;;;;;;;;;;
2021/12/14 10:15:37;;;;;;;;;;;;;;;;;;;;;
2021/12/14 10:18:16;;;;;;;2.50;1.23;;;;;;;14.02;75.00;101552.94;4891402;29;20990;-78
2021/12/14 10:21:11;;;;;;;;;;;;;;;;;;;;;
2021/12/14 10:23:51;;;;;;;;;;;;;;;;;;;;;
2021/12/14 10:26:32;;;;;;;3.50;1.40;;;;;;;15.68;68.91;101555.50;4889059;29;20060;-78
2021/12/14 10:29:29;;;;;;;4.15;1.60;;;;;;;16.43;68.05;101563.28;4898035;29;20049;-78
2021/12/14 10:32:29;;;;;;;2.63;1.60;;;;;;;17.07;65.81;101572.00;4887506;29;20108;-79
2021/12/14 10:35:15;;;;;;;5.15;1.02;;;;;;;17.55;63.58;101568.72;4889263;29;20036;-79
2021/12/14 10:43:16;;;;;;;2.60;0.85;;;;;;;19.92;61.68;101561.59;4894177;29;20435;-78
2021/12/14 10:45:43;;;;;;;;;;;;;;;20.79;59.34;101569.53;4886528;29;20059;-78
2021/12/14 10:48:10;;;;;;;6.70;1.50;;;;;;;20.62;57.80;101572.88;4891486;29;19918;-77
2021/12/14 10:50:38;;;;;;;2.22;1.35;;;;;;;20.64;56.13;101568.66;4889818;29;20505;-73
2021/12/14 10:53:08;;;;;;;1.85;1.23;;;;;;;20.77;55.84;101571.81;4884254;29;20033;-72
2021/12/14 10:55:38;;;;;;;1.70;1.20;;;;;;;20.98;55.04;101577.78;4877855;29;20071;-74
2021/12/14 10:58:06;;;;;;;2.30;1.40;;;;;;;21.15;53.72;101582.75;4882783;29;20088;-73
2021/12/14 11:00:45;;;;;;;1.08;0.98;;;;;;;21.43;53.70;101584.34;4870721;29;20512;-73
2021/12/14 11:03:17;;;;;;;4.15;1.60;;;;;;;21.59;52.28;101575.69;4881184;29;20033;-74
2021/12/14 11:05:47;;;;;;;2.03;1.25;;;;;;;21.86;52.56;101579.50;4880301;29;20037;-76
2021/12/14 11:10:59;;;;;;;6.63;1.38;;;;;;;22.41;51.12;101579.28;4888187;29;20112;-73
2021/12/14 11:13:24;;;;;;;1.25;0.77;;;;;;;22.42;49.96;101572.56;4874700;29;20065;-74
2021/12/14 11:15:54;;;;;;;1.58;0.90;;;;;;;21.87;49.30;101559.72;4887592;29;20099;-73
2021/12/14 11:18:23;;;;;;;3.90;1.55;;;;;;;21.62;48.97;101569.50;4885590;29;20056;-74
2021/12/14 11:21:04;;;;;;;3.53;1.38;;;;;;;21.59;48.20;101570.94;4881481;29;20124;-73
2021/12/14 11:23:41;;;;;;;3.22;1.10;;;;;;;20.92;49.04;101560.38;4897016;29;20088;-73
2021/12/14 11:26:18;;;;;;;2.78;1.33;;;;;;;20.11;49.94;101569.06;4885758;29;20025;-73
2021/12/14 11:28:50;;;;;;;3.63;0.90;;;;;;;19.22;51.90;101563.09;4886459;29;20021;-74
2021/12/14 11:31:18;;;;;;;4.65;1.20;;;;;;;18.51;54.15;101562.75;4884660;29;20507;-74
2021/12/14 11:33:52;;;;;;;2.50;1.40;;;;;;;18.08;55.59;101552.34;4880337;29;20065;-74
2021/12/14 11:36:40;;;;;;;1.17;0.50;;;;;;;17.78;55.70;101564.44;4886348;29;20040;-74
2021/12/14 11:39:12;;;;;;;1.48;1.05;;;;;;;17.39;57.01;101557.75;4887569;29;20070;-75
2021/12/14 11:41:49;;;;;;;1.30;0.80;;;;;;;17.20;58.37;101560.34;4884876;29;20784;-75
2021/12/14 11:44:26;;;;;;;1.63;0.70;;;;;;;16.97;58.54;101552.69;4895509;29;20088;-75
2021/12/14 11:47:07;;;;;;;1.90;0.68;;;;;;;16.76;58.86;101555.47;4885815;29;20025;-74
2021/12/14 11:49:45;;;;;;;0.77;0.57;;;;;;;16.64;59.94;101549.44;4888262;29;20029;-75
2021/12/14 11:52:11;;;;;;;0.70;0.57;;;;;;;16.48;59.92;101549.47;4884387;29;20088;-75
2021/12/14 11:54:43;;;;;;;3.90;0.93;;;;;;;16.37;60.86;101558.88;4888302;29;20081;-75
2021/12/14 11:57:09;;;;;;;0.55;0.30;;;;;;;16.22;61.27;101560.53;4905930;29;20407;-75
2021/12/14 11:59:35;;;;;;;0.85;0.50;;;;;;;16.07;61.15;101552.25;4904449;29;20037;-74
2021/12/14 12:02:05;;;;;;;0.75;0.47;;;;;;;15.92;61.99;101558.59;4897691;29;20039;-78
2021/12/14 12:04:36;;;;;;;0.65;0.35;;;;;;;15.68;62.24;101552.72;4891410;29;20036;-74
2021/12/14 12:09:40;;;;;;;1.08;0.40;;;;;;;15.28;63.73;101554.28;4898087;29;20041;-74
2021/12/14 12:12:06;;;;;;;1.55;0.40;;;;;;;15.15;64.42;101550.94;4909120;29;20024;-75
2021/12/14 12:15:06;;;;;;;0.30;0.30;;;;;;;15.06;64.49;101547.03;4907446;29;20107;-74
2021/12/14 12:18:21;;;;;;;1.42;0.28;;;;;;;14.96;65.26;101541.50;4905026;29;20029;-81
2021/12/14 12:20:50;;;;;;;1.40;0.60;;;;;;;14.80;65.54;101548.84;4909451;29;20060;-76
2021/12/14 12:23:24;;;;;;;0.13;0.13;;;;;;;14.70;65.76;101538.59;4904365;29;20056;-78
2021/12/14 12:26:09;;;;;;;5.13;0.55;;;;;;;14.56;66.21;101531.88;4901822;29;20059;-77
2021/12/14 12:28:42;;;;;;;1.55;0.60;;;;;;;14.58;66.11;101546.22;4887605;29;20029;-78
2021/12/14 12:31:38;;;;;;;;;;;;;;;;;;;;;
2021/12/14 12:34:14;;;;;;;1.27;0.40;;;;;;;14.26;67.28;101512.13;4914201;29;20056;-77
2021/12/14 12:36:47;;;;;;;0.90;0.47;;;;;;;14.33;67.59;101533.94;4908821;29;20028;-81
2021/12/14 12:39:22;;;;;;;4.80;0.50;;;;;;;14.25;67.71;101515.16;4894119;29;20036;-79
2021/12/14 12:42:18;;;;;;;1.50;0.43;;;;;;;14.21;67.63;101503.88;4888735;29;20056;-80
2021/12/14 12:44:44;;;;;;;0.90;0.40;;;;;;;14.26;68.03;101520.38;4904153;29;20036;-79
2021/12/14 12:47:25;;;;;;;0.43;0.20;;;;;;;14.28;68.14;101522.88;4889756;29;20040;-77
2021/12/14 12:50:04;;;;;;;1.95;0.60;;;;;;;14.33;68.50;101533.94;4891781;29;20061;-79
2021/12/14 12:52:36;;;;;;;1.77;0.45;;;;;;;14.26;68.58;101536.91;4886040;29;20036;-79
2021/12/14 12:55:28;;;;;;;0.80;0.50;;;;;;;14.20;68.73;101517.88;4897697;29;20059;-80
2021/12/14 12:58:15;;;;;;;0.80;0.80;;;;;;;14.14;68.79;101503.25;4895551;29;20032;-79
2021/12/14 13:01:13;;;;;;;3.17;1.08;;;;;;;14.19;69.05;101517.03;4902127;29;20025;-80
2021/12/14 13:03:50;;;;;;;2.28;0.47;;;;;;;13.95;69.53;101502.84;4905589;29;20068;-78
2021/12/14 13:06:21;;;;;;;3.67;0.70;;;;;;;13.81;69.97;101493.38;4902712;29;20056;-79
2021/12/14 13:08:59;;;;;;;0.85;0.77;;;;;;;13.95;70.07;101509.16;4875295;29;20096;-79
2021/12/14 13:11:33;;;;;;;2.47;0.73;;;;;;;13.84;70.24;101488.16;4901878;29;20506;-79
2021/12/14 13:14:23;;;;;;;0.85;0.60;;;;;;;14.02;70.23;101508.09;4890267;29;20077;-79
2021/12/14 13:17:07;;;;;;;1.05;0.70;;;;;;;14.03;70.43;101512.50;4907132;29;20471;-80
2021/12/14 13:19:51;;;;;;;0.77;0.47;;;;;;;14.02;70.36;101506.19;4907578;29;20056;-79
2021/12/14 13:22:42;;;;;;;2.38;0.68;;;;;;;13.93;70.24;101497.59;4903989;29;20100;-80
2021/12/14 13:25:59;;;;;;;0.35;0.30;;;;;;;13.97;70.05;101492.41;4894437;29;20099;-80
2021/12/14 13:28:40;;;;;;;1.02;0.57;;;;;;;13.93;70.06;101505.84;4888049;29;20052;-80
2021/12/14 13:31:25;;;;;;;0.40;0.38;;;;;;;13.70;70.04;101468.53;4887399;29;20032;-79
2021/12/14 13:33:55;;;;;;;1.88;0.70;;;;;;;13.78;70.71;101491.97;4904208;29;20379;-79
2021/12/14 13:36:29;;;;;;;0.40;0.28;;;;;;;13.76;70.07;101489.47;4887382;29;20337;-79
2021/12/14 13:38:58;;;;;;;0.85;0.63;;;;;;;13.71;70.24;101492.19;4903746;29;20021;-79
2021/12/14 13:42:13;;;;;;;0.82;0.40;;;;;;;13.77;70.52;101510.38;4885265;29;20033;-80
2021/12/14 13:44:56;;;;;;;2.58;0.52;;;;;;;13.57;70.56;101490.97;4905938;29;20039;-79
2021/12/14 13:47:41;;;;;;;1.23;0.50;;;;;;;13.67;70.82;101513.03;4902777;29;20027;-80
2021/12/14 13:50:44;;;;;;;4.30;0.73;;;;;;;13.47;70.81;101491.69;4885547;29;20428;-81
2021/12/14 13:53:17;;;;;;;0.85;0.50;;;;;;;13.42;70.79;101480.66;4892993;29;20033;-80
2021/12/14 13:56:20;;;;;;;2.20;0.70;;;;;;;13.57;71.01;101508.25;4900492;29;20041;-79
2021/12/14 13:59:06;;;;;;;;;;;;;;;;;;;;;
2021/12/14 14:01:53;;;;;;;0.75;0.35;;;;;;;13.56;71.47;101505.78;4903501;29;20132;-79
2021/12/14 14:04:30;;;;;;;1.75;0.60;;;;;;;13.52;71.70;101502.72;4885978;29;20029;-78
2021/12/14 14:07:27;;;;;;;;;;;;;;;;;;;;;
2021/12/14 14:09:42;;;;;;;1.80;0.50;;;;;;;13.36;71.67;101482.53;4905980;29;20076;-79
2021/12/14 14:12:18;;;;;;;0.45;0.40;;;;;;;13.50;71.74;101487.59;4904284;29;20064;-79